Time;durP1;ratioP1;P1;durP2;ratioP2;P2;SDS_P1;SDS_P2;PMS_P1;PMS_P2;Temp;Humidity;BMP_temperature;BMP_pressure;BME280_temperature;BME280_humidity;BME280_pressure;Samples;Min_cycle;Max_cycle;Signal;HPM_P1;HPM_P2
2021/10/27 00:01:45;;;;;;;5.70;4.40;;;;;;;9.98;79.92;96504.50;6129986;23;20179;-83
2021/10/27 00:04:13;;;;;;;6.53;4.93;;;;;;;10.00;79.65;96504.38;6130828;23;20180;-83
2021/10/27 00:06:39;;;;;;;5.90;4.50;;;;;;;9.98;79.91;96501.94;6130163;23;20179;-82
2021/10/27 00:09:06;;;;;;;5.00;4.50;;;;;;;10.02;79.59;96498.09;6131886;23;20269;-85
2021/10/27 00:11:33;;;;;;;5.00;4.33;;;;;;;10.01;79.78;96495.66;6131595;23;20186;-84
2021/10/27 00:13:59;;;;;;;4.63;4.20;;;;;;;10.08;79.87;96503.59;6131588;23;20180;-84
2021/10/27 00:16:27;;;;;;;4.47;4.07;;;;;;;10.10;79.53;96501.69;6131476;23;20513;-83
2021/10/27 00:18:53;;;;;;;6.17;4.40;;;;;;;10.15;79.82;96500.28;6129962;23;20206;-83
2021/10/27 00:21:21;;;;;;;5.53;4.30;;;;;;;10.21;79.78;96501.44;6131274;23;20183;-82
2021/10/27 00:23:48;;;;;;;5.90;4.40;;;;;;;10.23;79.88;96502.91;6138106;23;20179;-81
2021/10/27 00:26:14;;;;;;;4.60;4.17;;;;;;;10.29;79.81;96504.91;6138802;23;20176;-82
2021/10/27 00:28:41;;;;;;;4.70;4.20;;;;;;;10.30;79.50;96501.38;6139383;23;20206;-81
2021/10/27 00:31:07;;;;;;;5.80;4.30;;;;;;;10.24;79.41;96507.09;6139513;23;20202;-83
2021/10/27 00:33:34;;;;;;;4.70;4.17;;;;;;;10.20;79.61;96505.00;6139650;23;20180;-81
2021/10/27 00:36:00;;;;;;;4.90;4.40;;;;;;;10.14;79.64;96503.81;6139200;23;20183;-81
2021/10/27 00:38:28;;;;;;;4.60;4.10;;;;;;;10.10;79.48;96499.91;6139881;23;20186;-83
2021/10/27 00:40:55;;;;;;;4.67;4.27;;;;;;;10.09;78.97;96503.44;6139012;23;20182;-83
2021/10/27 00:43:21;;;;;;;5.53;4.20;;;;;;;10.13;78.81;96509.09;6132555;23;20180;-83
2021/10/27 00:45:48;;;;;;;5.33;3.97;;;;;;;10.11;78.82;96503.31;6131515;23;20183;-83
2021/10/27 00:48:14;;;;;;;4.73;4.23;;;;;;;10.09;78.32;96515.50;6131391;23;20187;-84
2021/10/27 00:50:41;;;;;;;5.00;3.93;;;;;;;10.10;78.37;96511.97;6132038;23;20210;-83
2021/10/27 00:53:07;;;;;;;4.77;4.37;;;;;;;10.05;77.85;96509.84;6132232;23;20205;-82
2021/10/27 00:55:35;;;;;;;4.83;4.20;;;;;;;9.99;78.33;96521.56;6132380;23;20235;-84
2021/10/27 00:58:02;;;;;;;4.80;4.40;;;;;;;9.95;78.39;96509.16;6132921;23;20182;-83
2021/10/27 01:00:29;;;;;;;4.77;4.27;;;;;;;9.90;78.17;96509.59;6132205;23;20200;-83
2021/10/27 01:02:55;;;;;;;4.80;4.30;;;;;;;9.86;78.33;96515.97;6133655;23;20549;-83
2021/10/27 01:05:22;;;;;;;4.70;4.30;;;;;;;9.82;78.35;96504.38;6132584;23;20179;-85
2021/10/27 01:07:49;;;;;;;4.97;4.30;;;;;;;9.81;78.34;96507.13;6132281;23;20191;-83
2021/10/27 01:10:15;;;;;;;4.63;4.13;;;;;;;9.79;77.66;96502.13;6131606;23;20195;-83
2021/10/27 01:12:45;;;;;;;4.50;4.10;;;;;;;9.74;77.65;96493.22;6131672;23;20180;-83
2021/10/27 01:15:11;;;;;;;4.97;4.50;;;;;;;9.72;77.95;96495.13;6131978;23;20709;-82
2021/10/27 01:17:38;;;;;;;4.30;3.90;;;;;;;9.63;78.18;96497.63;6132095;23;20180;-83
2021/10/27 01:20:07;;;;;;;4.23;3.73;;;;;;;9.69;78.58;96497.03;6132499;23;20210;-83
2021/10/27 01:22:36;;;;;;;4.20;3.63;;;;;;;9.75;78.84;96494.84;6131821;23;20203;-83
2021/10/27 01:25:05;;;;;;;5.53;3.73;;;;;;;9.79;78.38;96496.16;6132859;23;20186;-83
2021/10/27 01:27:32;;;;;;;4.30;3.73;;;;;;;9.76;78.38;96491.31;6131302;23;20180;-83
2021/10/27 01:29:59;;;;;;;4.20;3.80;;;;;;;9.82;78.02;96496.66;6132144;23;20263;-83
2021/10/27 01:32:31;;;;;;;3.90;3.60;;;;;;;9.87;77.75;96497.03;6132310;23;20203;-84
2021/10/27 01:34:59;;;;;;;3.73;3.43;;;;;;;9.88;77.20;96500.41;6131406;23;20171;-83
2021/10/27 01:37:27;;;;;;;3.70;3.40;;;;;;;9.85;77.02;96500.69;6132031;23;20171;-82
2021/10/27 01:39:54;;;;;;;4.20;3.80;;;;;;;9.67;76.02;96504.09;6132048;23;20196;-83
2021/10/27 01:42:21;;;;;;;4.20;3.80;;;;;;;9.68;76.37;96500.56;6132290;23;20184;-84
2021/10/27 01:44:48;;;;;;;4.30;3.90;;;;;;;9.55;76.32;96491.63;6132166;23;20179;-83
2021/10/27 01:47:15;;;;;;;4.43;3.80;;;;;;;9.45;77.18;96489.09;6132047;23;20185;-82
2021/10/27 01:49:42;;;;;;;4.07;3.47;;;;;;;9.45;77.60;96494.25;6131408;23;20732;-83
2021/10/27 01:52:09;;;;;;;4.00;3.40;;;;;;;9.45;77.22;96501.16;6131860;23;20543;-83
2021/10/27 01:54:37;;;;;;;4.70;3.83;;;;;;;9.37;77.70;96495.97;6131541;23;20179;-83
2021/10/27 01:57:06;;;;;;;4.50;4.10;;;;;;;9.29;78.21;96499.25;6131113;23;20175;-83
2021/10/27 01:59:33;;;;;;;4.10;3.53;;;;;;;9.34;78.13;96492.72;6132362;23;20878;-84
2021/10/27 02:02:00;;;;;;;4.57;4.17;;;;;;;9.33;78.85;96498.81;6131365;23;20186;-83
2021/10/27 02:04:27;;;;;;;4.47;4.07;;;;;;;9.36;78.81;96495.16;6131581;23;20563;-84
2021/10/27 02:06:53;;;;;;;4.40;3.80;;;;;;;9.40;78.33;96495.66;6131990;23;20525;-83
2021/10/27 02:09:20;;;;;;;4.40;4.00;;;;;;;9.41;77.47;96492.16;6131960;23;20200;-84
2021/10/27 02:11:48;;;;;;;4.00;3.60;;;;;;;9.41;78.21;96495.53;6131496;23;20176;-84
2021/10/27 02:14:15;;;;;;;4.13;3.73;;;;;;;9.45;78.09;96490.88;6131970;23;20506;-83
2021/10/27 02:16:42;;;;;;;4.40;4.03;;;;;;;9.48;77.75;96493.16;6131333;23;20191;-83
2021/10/27 02:19:09;;;;;;;4.90;3.83;;;;;;;9.45;77.77;96490.88;6132591;23;20206;-82
2021/10/27 02:21:36;;;;;;;3.80;3.50;;;;;;;9.44;77.79;96494.41;6132116;23;20231;-83
2021/10/27 02:24:03;;;;;;;5.07;3.43;;;;;;;9.44;77.49;96487.50;6130801;23;20174;-83
2021/10/27 02:26:29;;;;;;;6.43;4.30;;;;;;;9.40;77.58;96501.63;6131210;23;20186;-83
2021/10/27 02:28:57;;;;;;;4.40;4.00;;;;;;;9.40;77.60;96499.03;6130348;23;20206;-83
2021/10/27 02:31:24;;;;;;;4.83;3.87;;;;;;;9.35;76.73;96490.97;6130740;23;20645;-83
2021/10/27 02:33:53;;;;;;;4.33;3.93;;;;;;;9.29;76.87;96496.66;6131362;23;20180;-83
2021/10/27 02:36:20;;;;;;;4.60;3.90;;;;;;;9.25;77.36;96497.91;6130011;23;20186;-83
2021/10/27 02:38:49;;;;;;;4.10;3.70;;;;;;;9.29;77.10;96502.63;6130194;23;20196;-82
2021/10/27 02:41:16;;;;;;;3.73;3.43;;;;;;;9.27;76.76;96501.16;6130263;23;20186;-83
2021/10/27 02:43:43;;;;;;;4.07;3.53;;;;;;;9.18;76.73;96500.28;6129994;23;20203;-83
2021/10/27 02:46:11;;;;;;;4.20;3.67;;;;;;;9.16;77.11;96503.94;6130965;23;20180;-83
2021/10/27 02:48:38;;;;;;;5.37;3.60;;;;;;;9.13;76.91;96499.91;6129950;23;20233;-85
2021/10/27 02:51:04;;;;;;;4.97;4.07;;;;;;;9.12;77.27;96505.19;6129878;23;20179;-85
2021/10/27 02:53:31;;;;;;;4.13;3.60;;;;;;;9.11;77.48;96501.78;6129869;23;20207;-83
2021/10/27 02:55:57;;;;;;;4.20;3.60;;;;;;;9.13;76.70;96501.66;6130953;23;20176;-82
2021/10/27 02:58:24;;;;;;;4.30;3.90;;;;;;;9.16;76.43;96499.59;6130526;23;20191;-84
2021/10/27 03:00:51;;;;;;;3.90;3.50;;;;;;;9.14;76.55;96508.41;6130403;23;20187;-83
2021/10/27 03:03:19;;;;;;;4.07;3.53;;;;;;;9.15;76.24;96499.75;6131325;23;20235;-84
2021/10/27 03:05:46;;;;;;;5.53;3.43;;;;;;;9.14;76.18;96508.41;6130489;23;20513;-83
2021/10/27 03:08:12;;;;;;;4.33;3.67;;;;;;;9.15;75.80;96510.84;6130460;23;20171;-83
2021/10/27 03:10:39;;;;;;;4.03;3.63;;;;;;;9.12;75.60;96512.88;6129616;23;20217;-83
2021/10/27 03:13:05;;;;;;;3.97;3.57;;;;;;;9.02;75.91;96512.16;6129657;23;20175;-84
2021/10/27 03:15:32;;;;;;;4.30;3.90;;;;;;;9.08;76.06;96514.94;6130745;23;20184;-83
2021/10/27 03:17:59;;;;;;;4.23;3.50;;;;;;;9.10;76.28;96510.44;6131161;23;20183;-84
2021/10/27 03:20:27;;;;;;;4.60;3.50;;;;;;;9.08;76.28;96521.81;6129767;23;20199;-83
2021/10/27 03:22:53;;;;;;;4.73;3.63;;;;;;;9.06;76.35;96518.59;6129019;23;20254;-83
2021/10/27 03:25:20;;;;;;;3.97;3.57;;;;;;;9.03;75.82;96524.03;6129172;23;20172;-84
2021/10/27 03:27:47;;;;;;;5.03;3.83;;;;;;;9.04;75.52;96523.09;6128933;23;20179;-83
2021/10/27 03:30:13;;;;;;;3.43;3.13;;;;;;;9.04;75.22;96528.22;6129286;23;20578;-83
2021/10/27 03:32:40;;;;;;;4.07;3.67;;;;;;;9.03;75.18;96521.47;6130335;23;20176;-84
2021/10/27 03:35:12;;;;;;;4.13;3.70;;;;;;;8.98;75.31;96524.47;6129483;23;20183;-83
2021/10/27 03:37:40;;;;;;;4.40;4.00;;;;;;;8.80;75.17;96515.91;6130087;23;20160;-83
2021/10/27 03:40:07;;;;;;;3.53;3.23;;;;;;;8.79;75.27;96511.72;6130205;23;20192;-83
2021/10/27 03:42:34;;;;;;;4.10;3.80;;;;;;;8.62;75.97;96519.22;6130330;23;20179;-83
2021/10/27 03:45:00;;;;;;;4.10;3.70;;;;;;;8.67;76.10;96518.78;6130177;23;20175;-82
2021/10/27 03:47:27;;;;;;;4.47;3.90;;;;;;;8.75;75.97;96513.75;6131079;23;20182;-85
2021/10/27 03:49:54;;;;;;;3.87;3.57;;;;;;;8.76;76.12;96514.56;6132220;23;20200;-83
2021/10/27 03:52:21;;;;;;;4.07;3.67;;;;;;;8.73;75.83;96510.50;6132480;23;20281;-82
2021/10/27 03:54:48;;;;;;;3.60;3.30;;;;;;;8.78;75.36;96518.59;6133817;23;20637;-84
2021/10/27 03:57:15;;;;;;;3.83;3.10;;;;;;;8.79;75.35;96527.94;6133551;23;20187;-83
2021/10/27 03:59:41;;;;;;;4.07;3.60;;;;;;;8.76;75.26;96530.78;6132007;23;20206;-83
2021/10/27 04:02:08;;;;;;;3.47;3.17;;;;;;;8.75;75.69;96518.06;6133473;23;20182;-83
2021/10/27 04:04:34;;;;;;;3.33;3.10;;;;;;;8.73;75.68;96528.50;6132778;23;20489;-82
2021/10/27 04:07:01;;;;;;;4.63;3.70;;;;;;;8.68;75.54;96525.53;6133432;23;20187;-82
2021/10/27 04:09:27;;;;;;;3.67;3.23;;;;;;;8.69;75.87;96527.16;6133522;23;20199;-83
2021/10/27 04:11:56;;;;;;;3.93;3.57;;;;;;;8.66;75.50;96527.44;6132834;23;20176;-82
2021/10/27 04:14:22;;;;;;;3.77;3.37;;;;;;;8.70;75.56;96528.75;6133234;23;20190;-83
2021/10/27 04:16:49;;;;;;;3.77;3.47;;;;;;;8.73;75.26;96532.81;6130798;23;20545;-82
2021/10/27 04:19:15;;;;;;;16.60;13.87;;;;;;;8.73;75.02;96537.94;6128124;23;20196;-83
2021/10/27 04:21:42;;;;;;;4.40;4.00;;;;;;;8.58;74.51;96538.41;6127385;23;20184;-82
2021/10/27 04:24:08;;;;;;;4.80;4.30;;;;;;;8.48;75.41;96545.31;6128360;23;20183;-83
2021/10/27 04:26:35;;;;;;;4.93;3.63;;;;;;;8.51;75.14;96541.66;6128350;23;20544;-83
2021/10/27 04:29:03;;;;;;;4.23;3.20;;;;;;;8.52;75.09;96546.66;6126457;23;20199;-82
2021/10/27 04:31:30;;;;;;;3.77;3.47;;;;;;;8.43;75.08;96542.38;6127296;23;20183;-83
2021/10/27 04:33:56;;;;;;;3.97;3.67;;;;;;;8.38;74.88;96552.25;6127374;23;20179;-82
2021/10/27 04:36:23;;;;;;;5.97;3.80;;;;;;;8.29;76.15;96537.63;6125522;23;20179;-82
2021/10/27 04:38:50;;;;;;;4.10;3.50;;;;;;;8.32;76.76;96540.78;6126628;23;20244;-83
2021/10/27 04:41:16;;;;;;;5.80;3.43;;;;;;;8.34;76.06;96537.25;6126051;23;20434;-82
2021/10/27 04:43:43;;;;;;;4.43;4.03;;;;;;;8.25;75.94;96532.00;6124855;23;20182;-81
2021/10/27 04:46:11;;;;;;;4.63;4.23;;;;;;;8.24;77.22;96532.94;6125855;23;20183;-83
2021/10/27 04:48:37;;;;;;;4.47;3.80;;;;;;;8.35;76.21;96534.56;6126293;23;20179;-84
2021/10/27 04:51:04;;;;;;;4.60;4.10;;;;;;;8.45;76.00;96537.13;6125936;23;20234;-82
2021/10/27 04:53:30;;;;;;;4.57;4.00;;;;;;;8.52;75.87;96538.16;6127821;23;20207;-83
2021/10/27 04:55:57;;;;;;;4.00;3.70;;;;;;;8.56;75.68;96542.06;6124453;23;20187;-82
2021/10/27 04:58:27;;;;;;;4.30;3.50;;;;;;;8.59;75.48;96537.47;6123499;23;20183;-83
2021/10/27 05:00:54;;;;;;;4.87;3.87;;;;;;;8.59;75.70;96542.59;6124978;23;20163;-83
2021/10/27 05:03:22;;;;;;;6.90;6.20;;;;;;;8.45;75.68;96540.50;6124835;23;20533;-83
2021/10/27 05:05:50;;;;;;;5.37;4.70;;;;;;;8.42;75.94;96548.47;6125292;23;20183;-83
2021/10/27 05:08:18;;;;;;;4.40;4.00;;;;;;;8.46;75.49;96536.97;6124337;23;20176;-83
2021/10/27 05:10:45;;;;;;;5.13;4.30;;;;;;;8.45;76.16;96544.81;6125026;23;20653;-82
2021/10/27 05:13:11;;;;;;;4.47;4.07;;;;;;;8.49;76.38;96541.81;6124522;23;20184;-83
2021/10/27 05:15:38;;;;;;;5.13;3.93;;;;;;;8.51;76.49;96545.03;6125104;23;20176;-83
2021/10/27 05:18:05;;;;;;;4.17;3.77;;;;;;;8.52;76.30;96546.66;6123941;23;20186;-83
2021/10/27 05:20:33;;;;;;;4.13;3.73;;;;;;;8.59;75.54;96546.94;6125676;23;20283;-83
2021/10/27 05:23:00;;;;;;;4.20;3.80;;;;;;;8.61;75.67;96545.84;6126449;23;20262;-82
2021/10/27 05:25:26;;;;;;;4.00;3.60;;;;;;;8.59;75.15;96546.94;6124875;23;20176;-82
2021/10/27 05:27:53;;;;;;;4.53;4.10;;;;;;;8.50;75.34;96545.19;6125078;23;20231;-83
2021/10/27 05:30:20;;;;;;;4.13;3.50;;;;;;;8.52;76.10;96551.00;6125353;23;20218;-82
2021/10/27 05:32:46;;;;;;;4.77;3.70;;;;;;;8.53;75.94;96550.03;6129734;23;20195;-83
2021/10/27 05:35:13;;;;;;;5.10;3.40;;;;;;;8.55;75.69;96545.59;6138995;23;20184;-82
2021/10/27 05:37:40;;;;;;;4.23;3.70;;;;;;;8.60;75.20;96551.13;6140807;23;20172;-83
2021/10/27 05:40:08;;;;;;;4.27;3.53;;;;;;;8.61;74.93;96553.53;6140369;23;20215;-83
2021/10/27 05:42:35;;;;;;;3.93;3.37;;;;;;;8.64;74.79;96555.84;6141739;23;20186;-82
2021/10/27 05:45:05;;;;;;;3.80;3.30;;;;;;;8.63;74.82;96554.22;6138838;23;20171;-81
2021/10/27 05:47:32;;;;;;;4.67;3.40;;;;;;;8.61;74.33;96561.25;6141500;23;20203;-83
2021/10/27 05:50:18;;;;;;;3.90;3.50;;;;;;;8.60;74.45;96559.63;6142008;23;20287;-83
2021/10/27 05:55:42;;;;;;;4.40;3.50;;;;;;;8.52;74.54;96564.63;6109703;23;20176;-83
2021/10/27 05:58:10;;;;;;;4.97;3.33;;;;;;;8.50;74.45;96566.53;6132237;23;20232;-81
2021/10/27 06:00:37;;;;;;;4.47;3.80;;;;;;;8.41;74.82;96569.13;6141186;23;20199;-85
2021/10/27 06:03:04;;;;;;;5.17;4.03;;;;;;;8.40;74.99;96577.78;6142050;23;20649;-84
2021/10/27 06:05:31;;;;;;;5.57;3.73;;;;;;;8.38;75.21;96574.53;6141813;23;20179;-84
2021/10/27 06:08:00;;;;;;;4.97;3.43;;;;;;;8.35;75.05;96578.19;6141595;23;20231;-86
2021/10/27 06:10:27;;;;;;;5.30;3.77;;;;;;;8.43;75.15;96574.94;6138094;23;20210;-86
2021/10/27 06:12:58;;;;;;;5.03;3.47;;;;;;;8.46;74.58;96578.03;6134094;23;20179;-85
2021/10/27 06:15:25;;;;;;;4.63;4.00;;;;;;;8.52;74.13;96572.34;6135211;23;20167;-85
2021/10/27 06:17:54;;;;;;;7.13;4.43;;;;;;;8.54;74.38;96570.44;6135189;23;20190;-85
2021/10/27 06:20:21;;;;;;;6.07;4.13;;;;;;;8.53;74.26;96573.16;6128372;23;20241;-85
2021/10/27 06:22:47;;;;;;;4.13;3.70;;;;;;;8.58;74.66;96569.22;6132168;23;20210;-85
2021/10/27 06:25:17;;;;;;;4.90;3.80;;;;;;;8.63;74.51;96577.31;6140285;23;20186;-83
2021/10/27 06:27:46;;;;;;;4.03;3.37;;;;;;;8.70;74.51;96582.69;6135743;23;20202;-86
2021/10/27 06:30:17;;;;;;;4.27;3.67;;;;;;;8.61;74.43;96589.47;6131536;23;20649;-83
2021/10/27 06:32:51;;;;;;;5.23;3.60;;;;;;;8.70;74.32;96595.53;6130677;23;20195;-82
2021/10/27 06:35:21;;;;;;;3.63;3.33;;;;;;;8.78;74.95;96587.94;6132579;23;20163;-83
2021/10/27 06:38:08;;;;;;;7.70;3.63;;;;;;;8.86;75.14;96597.50;6131396;23;20171;-83
2021/10/27 06:46:30;;;;;;;3.83;3.47;;;;;;;9.33;73.71;96586.19;6129855;23;20191;-83
2021/10/27 06:48:56;;;;;;;3.60;3.30;;;;;;;9.51;73.35;96600.84;6131023;23;20200;-83
2021/10/27 06:51:23;;;;;;;5.30;3.70;;;;;;;9.65;72.40;96595.19;6130713;23;20195;-84
2021/10/27 06:53:53;;;;;;;4.00;3.27;;;;;;;9.78;72.01;96595.66;6131071;23;20182;-83
2021/10/27 06:56:22;;;;;;;3.87;3.23;;;;;;;10.09;71.71;96598.66;6129842;23;20231;-83
2021/10/27 06:58:52;;;;;;;3.57;3.27;;;;;;;10.62;70.40;96600.34;6130253;23;20521;-84
2021/10/27 07:01:23;;;;;;;5.30;3.47;;;;;;;11.20;68.45;96600.50;6130987;23;20171;-84
2021/10/27 07:04:27;;;;;;;5.40;4.33;;;;;;;11.68;66.07;96605.00;6131053;23;20483;-84
2021/10/27 07:07:04;;;;;;;7.53;3.40;;;;;;;12.16;65.22;96594.91;6129728;23;20652;-83
2021/10/27 07:15:04;;;;;;;4.90;3.30;;;;;;;13.07;62.41;96604.00;6130772;23;20216;-84
2021/10/27 07:17:33;;;;;;;3.20;2.90;;;;;;;13.29;61.46;96594.72;6130832;23;20182;-82
2021/10/27 07:20:01;;;;;;;4.27;3.40;;;;;;;13.45;62.00;96597.25;6129294;23;20207;-83
2021/10/27 07:22:28;;;;;;;5.00;3.20;;;;;;;13.56;60.83;96593.47;6132608;23;20259;-83
2021/10/27 07:24:57;;;;;;;4.97;2.90;;;;;;;13.62;61.11;96597.16;6132279;23;20163;-84
2021/10/27 07:27:25;;;;;;;3.50;3.20;;;;;;;13.70;60.83;96592.72;6129404;23;20184;-84
2021/10/27 07:29:52;;;;;;;4.50;3.10;;;;;;;13.82;60.90;96587.97;6130541;23;20226;-84
2021/10/27 07:32:20;;;;;;;3.90;3.40;;;;;;;13.92;60.57;96591.13;6131063;23;20178;-84
2021/10/27 07:34:51;;;;;;;3.43;3.13;;;;;;;14.06;60.24;96585.19;6131366;23;20629;-84
2021/10/27 07:42:48;;;;;;;5.00;3.30;;;;;;;14.59;58.97;96593.06;6124965;23;20181;-83
2021/10/27 07:45:14;;;;;;;6.00;3.20;;;;;;;14.74;58.49;96597.28;6129747;23;20183;-82
2021/10/27 07:47:43;;;;;;;9.43;3.40;;;;;;;14.91;58.12;96591.94;6130553;23;20180;-83
2021/10/27 07:50:10;;;;;;;4.60;3.03;;;;;;;14.97;58.34;96588.63;6130798;23;20211;-84
2021/10/27 07:52:37;;;;;;;6.23;3.17;;;;;;;15.01;57.12;96589.88;6131363;23;20205;-83
2021/10/27 07:55:04;;;;;;;6.87;3.60;;;;;;;15.07;56.88;96589.16;6131743;23;20329;-83
2021/10/27 07:57:31;;;;;;;5.80;3.30;;;;;;;15.17;57.69;96595.69;6129455;23;20175;-84
2021/10/27 07:59:58;;;;;;;5.83;3.37;;;;;;;15.30;57.07;96587.25;6130313;23;20196;-83
2021/10/27 08:02:25;;;;;;;5.50;3.13;;;;;;;15.36;56.44;96593.53;6130371;23;20175;-83
2021/10/27 08:04:51;;;;;;;3.50;3.20;;;;;;;15.43;56.79;96586.59;6131363;23;20179;-84
2021/10/27 08:07:18;;;;;;;5.90;3.20;;;;;;;15.36;55.62;96593.53;6129499;23;20182;-83
2021/10/27 08:09:44;;;;;;;6.60;3.47;;;;;;;15.50;56.59;96598.69;6129955;23;20202;-82
2021/10/27 08:12:11;;;;;;;6.90;3.15;;;;;;;15.59;56.16;96591.59;6130065;23;20179;-84
2021/10/27 08:14:39;;;;;;;6.80;3.17;;;;;;;15.59;55.98;96590.84;6130642;23;20199;-84
2021/10/27 08:17:06;;;;;;;4.10;2.90;;;;;;;15.50;55.37;96590.09;6132178;23;20180;-83
2021/10/27 08:19:33;;;;;;;4.10;3.10;;;;;;;15.31;55.98;96594.06;6130556;23;20195;-84
2021/10/27 08:22:03;;;;;;;5.03;2.90;;;;;;;15.17;56.46;96587.91;6129494;23;20214;-84
2021/10/27 08:24:29;;;;;;;3.83;3.40;;;;;;;15.29;56.54;96590.03;6128708;23;20214;-83
2021/10/27 08:27:05;;;;;;;4.80;3.20;;;;;;;15.33;57.07;96586.91;6127517;23;20209;-83
2021/10/27 08:29:36;;;;;;;3.67;2.97;;;;;;;15.25;56.98;96589.59;6129239;23;20592;-84
2021/10/27 08:32:15;;;;;;;3.87;2.97;;;;;;;15.16;57.74;96577.72;6130088;23;20630;-84
2021/10/27 08:34:47;;;;;;;8.20;2.93;;;;;;;15.10;57.91;96576.63;6130133;23;20166;-84
2021/10/27 08:37:14;;;;;;;3.22;2.90;;;;;;;15.03;57.72;96580.13;6128779;23;20242;-84
2021/10/27 08:39:41;;;;;;;4.17;3.23;;;;;;;14.90;58.37;96583.34;6129005;23;20195;-84
2021/10/27 08:42:09;;;;;;;3.97;3.17;;;;;;;14.79;56.93;96591.59;6132054;23;20160;-84
2021/10/27 08:44:35;;;;;;;6.90;3.23;;;;;;;14.90;57.64;96580.75;6130896;23;20186;-84
2021/10/27 08:47:03;;;;;;;3.40;3.10;;;;;;;14.89;57.98;96573.16;6129418;23;20175;-84
2021/10/27 08:49:32;;;;;;;5.93;3.80;;;;;;;14.82;58.32;96576.44;6130468;23;20254;-84
2021/10/27 08:52:02;;;;;;;4.70;3.40;;;;;;;14.88;58.46;96580.13;6129492;23;20524;-83
2021/10/27 08:54:29;;;;;;;5.33;3.80;;;;;;;14.89;57.70;96584.31;6128493;23;20175;-83
2021/10/27 08:56:58;;;;;;;4.37;3.50;;;;;;;14.94;56.91;96582.00;6128500;23;20629;-84
2021/10/27 08:59:33;;;;;;;8.17;3.80;;;;;;;15.01;57.82;96571.75;6127507;23;20714;-84
2021/10/27 09:02:19;;;;;;;4.23;3.50;;;;;;;15.10;58.18;96570.63;6129916;23;20597;-83
2021/10/27 09:05:07;;;;;;;5.63;4.27;;;;;;;15.04;57.58;96577.34;6134729;23;20160;-83
2021/10/27 09:07:49;;;;;;;4.20;3.73;;;;;;;15.11;58.49;96572.25;6129727;23;20231;-83
2021/10/27 09:10:39;;;;;;;6.73;4.10;;;;;;;15.26;57.92;96575.63;6130057;23;20206;-83
2021/10/27 09:16:09;;;;;;;6.22;4.60;;;;;;;15.18;57.59;96570.56;6131133;23;20221;-83
2021/10/27 09:35:49;;;;;;;7.43;5.43;;;;;;;15.29;59.22;96551.91;6124400;23;20303;-81
2021/10/27 09:44:19;;;;;;;8.43;6.00;;;;;;;15.38;59.96;96552.63;6127651;23;20188;-82
2021/10/27 09:47:11;;;;;;;7.53;5.85;;;;;;;15.34;59.12;96553.97;6127201;23;20498;-82
2021/10/27 09:55:47;;;;;;;6.97;6.10;;;;;;;15.32;59.91;96554.16;6128900;23;20163;-82
2021/10/27 10:04:10;;;;;;;7.20;6.33;;;;;;;15.30;60.39;96545.75;6127939;23;20190;-82
2021/10/27 10:06:38;;;;;;;8.80;6.40;;;;;;;15.40;61.10;96550.63;6127672;23;20368;-82
2021/10/27 10:09:05;;;;;;;8.23;5.70;;;;;;;15.35;59.58;96551.19;6128105;23;20270;-82
2021/10/27 10:11:34;;;;;;;12.10;6.75;;;;;;;15.31;60.23;96544.75;6128741;23;20202;-82
2021/10/27 10:14:02;;;;;;;7.17;6.20;;;;;;;15.17;59.88;96556.78;6128285;23;20502;-82
2021/10/27 10:16:30;;;;;;;8.70;6.17;;;;;;;15.12;60.63;96550.50;6128553;23;20186;-82
2021/10/27 10:19:00;;;;;;;6.95;6.25;;;;;;;15.02;61.08;96544.78;6128443;23;20254;-82
2021/10/27 10:21:29;;;;;;;7.30;6.40;;;;;;;15.04;60.63;96550.59;6128046;23;20176;-82
2021/10/27 10:24:34;;;;;;;6.95;6.25;;;;;;;15.12;61.59;96542.72;6128751;23;20203;-82
2021/10/27 10:27:07;;;;;;;8.30;5.70;;;;;;;15.20;61.30;96542.66;6127597;23;20163;-81
2021/10/27 10:29:54;;;;;;;7.90;5.95;;;;;;;15.26;61.33;96543.69;6127564;23;20218;-82
2021/10/27 10:32:39;;;;;;;6.60;6.00;;;;;;;15.39;61.51;96542.06;6127104;23;20242;-82
2021/10/27 10:35:18;;;;;;;9.95;6.03;;;;;;;15.36;60.61;96539.84;6127310;23;20156;-82
2021/10/27 10:37:54;;;;;;;7.07;5.80;;;;;;;15.35;60.85;96535.63;6126498;23;20160;-82
2021/10/27 10:40:51;;;;;;;6.70;5.97;;;;;;;15.38;61.37;96535.28;6125188;23;20199;-82
2021/10/27 11:22:47;;;;;;;7.13;6.32;;;;;;;15.48;62.63;96491.63;6124308;23;20689;-80
2021/10/27 11:25:20;;;;;;;7.85;5.78;;;;;;;15.38;61.83;96485.16;6122824;23;20183;-82
2021/10/27 11:38:55;;;;;;;9.07;4.80;;;;;;;15.35;61.11;96470.75;6124085;23;20164;-83
2021/10/27 11:41:33;;;;;;;5.07;4.68;;;;;;;15.44;60.60;96463.63;6122852;23;20159;-82
2021/10/27 11:44:10;;;;;;;5.50;4.97;;;;;;;15.58;60.77;96465.44;6124807;23;20574;-82
2021/10/27 11:46:47;;;;;;;6.85;4.38;;;;;;;15.71;59.75;96464.72;6125774;23;20171;-82
2021/10/27 11:49:15;;;;;;;5.07;4.57;;;;;;;15.81;59.23;96458.22;6124083;23;20689;-82
2021/10/27 11:52:23;;;;;;;4.78;4.35;;;;;;;15.96;58.77;96454.75;6126848;23;20250;-82
2021/10/27 11:54:56;;;;;;;6.32;4.30;;;;;;;15.99;58.64;96449.97;6126359;23;20172;-82
2021/10/27 11:57:23;;;;;;;5.20;4.50;;;;;;;15.94;58.85;96443.75;6125397;23;20497;-81
2021/10/27 11:59:50;;;;;;;7.45;4.72;;;;;;;16.00;59.60;96443.78;6126686;23;20327;-82
2021/10/27 12:02:18;;;;;;;5.38;4.95;;;;;;;16.05;59.50;96433.63;6127091;23;20179;-81
2021/10/27 12:04:45;;;;;;;7.88;4.90;;;;;;;16.16;59.73;96438.28;6127244;23;20180;-81
2021/10/27 12:07:17;;;;;;;5.97;5.13;;;;;;;16.08;59.08;96432.44;6126624;23;20254;-82
2021/10/27 12:10:01;;;;;;;6.78;4.47;;;;;;;16.27;59.04;96420.56;6127010;23;20242;-83
2021/10/27 12:15:29;;;;;;;6.30;4.75;;;;;;;16.45;57.58;96423.47;6124021;23;20202;-82
2021/10/27 12:18:00;;;;;;;6.18;4.32;;;;;;;16.49;57.37;96419.50;6126403;23;20170;-82
2021/10/27 12:20:36;;;;;;;5.50;4.85;;;;;;;16.45;57.79;96413.88;6126556;23;20187;-82
2021/10/27 12:23:08;;;;;;;5.32;4.82;;;;;;;16.56;58.11;96407.31;6127244;23;20179;-82
2021/10/27 12:25:36;;;;;;;5.63;4.70;;;;;;;16.71;57.61;96402.81;6126782;23;20175;-82
2021/10/27 12:28:06;;;;;;;5.60;4.75;;;;;;;16.72;56.95;96394.03;6126872;23;20242;-83
2021/10/27 12:30:40;;;;;;;5.40;4.90;;;;;;;16.73;57.32;96392.22;6126327;23;20636;-83
2021/10/27 12:33:12;;;;;;;5.38;4.72;;;;;;;16.74;57.13;96389.41;6127245;23;20163;-83
2021/10/27 12:35:39;;;;;;;4.95;4.47;;;;;;;16.69;56.78;96396.22;6126352;23;20164;-83
2021/10/27 12:38:17;;;;;;;6.88;4.30;;;;;;;16.77;57.39;96388.22;6128172;23;20179;-82
2021/10/27 12:40:45;;;;;;;5.50;5.00;;;;;;;16.73;56.72;96400.03;6126632;23;20203;-82
2021/10/27 12:43:14;;;;;;;6.35;4.97;;;;;;;16.87;56.92;96386.88;6127179;23;20187;-83
2021/10/27 12:45:44;;;;;;;4.78;4.28;;;;;;;17.04;56.85;96391.72;6127366;23;20243;-82
2021/10/27 12:48:12;;;;;;;5.22;4.72;;;;;;;17.11;56.16;96379.53;6127958;23;20246;-83
2021/10/27 12:50:51;;;;;;;4.72;3.97;;;;;;;17.10;55.21;96381.31;6128338;23;20590;-82
2021/10/27 12:53:30;;;;;;;4.47;4.03;;;;;;;17.21;55.03;96382.53;6128394;23;20164;-83
2021/10/27 12:56:04;;;;;;;4.47;4.03;;;;;;;17.21;54.65;96377.31;6128083;23;20218;-82
2021/10/27 12:58:32;;;;;;;5.85;4.55;;;;;;;17.18;54.92;96377.72;6126627;23;20205;-83
2021/10/27 13:01:09;;;;;;;6.53;4.68;;;;;;;17.23;54.63;96378.75;6128561;23;20181;-82
2021/10/27 13:03:52;;;;;;;4.20;3.72;;;;;;;17.19;54.98;96381.94;6127683;23;20191;-82
2021/10/27 13:15:05;;;;;;;4.80;4.03;;;;;;;17.04;56.30;96363.91;6128181;23;20206;-82
2021/10/27 13:17:59;;;;;;;5.07;4.57;;;;;;;16.98;55.97;96369.88;6128358;23;20183;-82
2021/10/27 13:31:24;;;;;;;6.53;4.90;;;;;;;17.19;55.58;96350.69;6129169;23;20194;-83
2021/10/27 13:33:51;;;;;;;6.53;5.47;;;;;;;17.14;55.21;96342.69;6128725;23;20675;-82
2021/10/27 13:36:17;;;;;;;4.60;3.97;;;;;;;17.14;55.93;96337.47;6127549;23;20190;-83
2021/10/27 13:38:45;;;;;;;6.40;4.38;;;;;;;17.19;55.82;96342.88;6127349;23;20183;-82
2021/10/27 13:41:22;;;;;;;5.78;4.82;;;;;;;17.16;55.85;96336.28;6127739;23;20163;-83
2021/10/27 13:43:52;;;;;;;5.95;4.47;;;;;;;17.13;55.60;96335.88;6128487;23;20246;-83
2021/10/27 14:08:19;;;;;;;6.95;4.82;;;;;;;17.14;55.52;96316.66;6127729;23;20364;-83
2021/10/27 14:10:53;;;;;;;5.35;4.85;;;;;;;17.27;55.70;96316.69;6129518;23;20200;-81
2021/10/27 14:13:40;;;;;;;6.05;5.03;;;;;;;17.39;55.16;96314.25;6128383;23;20159;-82
2021/10/27 14:16:31;;;;;;;5.18;4.68;;;;;;;17.44;54.99;96311.88;6127243;23;20156;-83
2021/10/27 15:19:47;;;;;;;7.50;6.80;;;;;;;16.22;59.55;96299.00;6124887;23;20198;-83
2021/10/27 15:22:20;;;;;;;7.35;6.65;;;;;;;16.14;59.82;96301.78;6125318;23;20258;-83